Mobridge, SD

7:45 PM CDT on September 19, 2014 (GMT -0500)
Mobridge Municipal | Change Station
CLOSE
Current Station
Airport
Location: Mobridge,
Elevation: 1716 ft
Nearby Weather Stations

Elev 1716 ft 45.55 °N, 100.41 °W | Updated 53 minutes ago

Clear
Clear
78 °F
Feels Like 78 °F
N
10
Wind Variable Wind from WNW

Today
High -- | Low -- °F
--% Chance of Precip.
Yesterday
High -- | Low -- °F
Precip. -- in
7:25 AM 7:44 PM
Waning Crescent, 16% visible
Pressure 29.68 in
Visibility 10.0 miles
Clouds Clear
Dew Point 52 °F
Humidity 40%
Rainfall 0.34 in
Snow Depth 0 in
UV 0 out of 12
Pollen 5.80 out of 12
Air Quality Not available.
Flu Activity Not available.
METAR KMBG 192352Z AUTO 30009KT 10SM CLR 26/11 A2971 RMK AO2 SLP050 T02560111 10294 20256 $

More Conditions Fewer Conditions

Pressure 29.68 in
Visibility 10.0 miles
Clouds Clear
Dew Point 52 °F
Humidity 40%
Rainfall 0.34 in
Snow Depth 0 in
UV 0 out of 12
Pollen 5.80 out of 12
Air Quality Not available.
Flu Activity Not available.
METAR KMBG 192352Z AUTO 30009KT 10SM CLR 26/11 A2971 RMK AO2 SLP050 T02560111 10294 20256 $

More Conditions Fewer Conditions

10-Day Weather Forecast

Almanac

Astronomy

Sep. 19, 2014 Rise Set
Actual Time 7:25 AM CDT 7:44 PM CDT
Civil Twilight 6:55 AM CDT 8:14 PM CDT
Nautical Twilight 6:20 AM CDT 8:49 PM CDT
Astronomical Twilight 5:44 AM CDT 9:25 PM CDT
Moon 3:01 AM CDT (9/19) 5:23 PM CDT (9/19)
Length of Visible Light 13h 19m
Length of Day
12h 19m
Tomorrow will be 3m 11s shorter.
Waning Crescent, 16% of the Moon is Illuminated
Today
Waning Crescent
Sep 24
New
Oct 1
First Quarter
Oct 8
Full
Oct 15
Last Quarter

Today's Extremes

State Highs State Lows

Community

WunderPhotos

Upload Photos

1,754,744 photos uploaded!

WunderBlogs® & News

Nearby

Snow Depth

Station Depth Elevation
Blind Park 0 in 6890 ft

Earthquake Activity

City Distance Mag. Time & Date
No recent earthquake activity has been reported nearby.
Minimum magnitude displayed is 2.5.

Coastal Water Temperatures

Place Temperature
No Stations Reporting

Nearby Weather Stations